This is the latest recevied weather packets stored in our database for station/object NO3U. If no packets are shown the sender has not sent any weather packets the latest 1 day(s).
| Time | Temp. | Humidity | Pressure | Rain* | Wind** | Luminosity | Snow |
|---|---|---|---|---|---|---|---|
| 1777981997 | 18.89° C | 68% | 1008.6 hPa | 0 mm | 0.45 m/s, 32° | 82 W/m² | - |
| 1777981695 | 18.33° C | 68% | 1008.6 hPa | 0 mm | 1.34 m/s, 271° | 106 W/m² | - |
| 1777981392 | 18.33° C | 68% | 1008.6 hPa | 0 mm | 2.24 m/s, 186° | 92 W/m² | - |
| 1777981088 | 18.33° C | 67% | 1008.7 hPa | 0 mm | 1.79 m/s, 265° | 96 W/m² | - |
| 1777980784 | 17.78° C | 72% | 1008.5 hPa | 0 mm | 0.45 m/s, 358° | 85 W/m² | - |
| 1777980480 | 17.78° C | 69% | 1008.5 hPa | 0 mm | 0.45 m/s, 46° | 72 W/m² | - |
| 1777980178 | 17.78° C | 71% | 1008.5 hPa | 0 mm | 0 m/s | 70 W/m² | - |
| 1777979873 | 17.78° C | 70% | 1008.5 hPa | 0 mm | 0 m/s | 64 W/m² | - |
| 1777979569 | 17.22° C | 72% | 1008.5 hPa | 0 mm | 0.89 m/s, 62° | 57 W/m² | - |
| 1777979265 | 17.22° C | 72% | 1008.3 hPa | 0 mm | 1.34 m/s, 71° | 45 W/m² | - |
| 1777978963 | 17.22° C | 73% | 1008 hPa | 0 mm | 1.34 m/s, 104° | 38 W/m² | - |
| 1777978659 | 17.22° C | 72% | 1008 hPa | 0 mm | 0.45 m/s, 162° | 29 W/m² | - |
| 1777978354 | 17.22° C | 72% | 1007.9 hPa | 0 mm | 0 m/s | 23 W/m² | - |
| 1777978051 | 17.22° C | 71% | 1008 hPa | 0 mm | 0 m/s | 17 W/m² | - |
| 1777977749 | 17.78° C | 70% | 1007.9 hPa | 0 mm | 0.45 m/s, 96° | 12 W/m² | - |
| 1777977445 | 17.22° C | 70% | 1008 hPa | 0 mm | 0.89 m/s, 46° | 9 W/m² | - |
| 1777977143 | 17.78° C | 70% | 1007.7 hPa | 0 mm | 0.89 m/s, 115° | 6 W/m² | - |
| 1777976840 | 17.22° C | 72% | 1007.7 hPa | 0 mm | 0.89 m/s, 116° | 5 W/m² | - |
| 1777976538 | 17.22° C | 70% | 1007.7 hPa | 0 mm | 0.89 m/s, 65° | 4 W/m² | - |
| 1777976237 | 17.78° C | 69% | 1007.7 hPa | 0 mm | 0.45 m/s, 130° | 2 W/m² | - |
| 1777975932 | 17.78° C | 69% | 1007.6 hPa | 0 mm | 0.89 m/s, 93° | 1 W/m² | - |
| 1777975629 | 17.78° C | 68% | 1007.5 hPa | 0 mm | 0 m/s | 1 W/m² | - |
| 1777975326 | 17.78° C | 70% | 1007.4 hPa | 0 mm | 0 m/s | 0 W/m² | - |
| 1777975021 | 17.78° C | 71% | 1007.3 hPa | 0 mm | 0.45 m/s, 217° | 0 W/m² | - |
| 1777974720 | 17.78° C | 70% | 1007.5 hPa | 0 mm | 0 m/s | 0 W/m² | - |
* Rain latest hour (hover to see other rain measurements)
** Current wind speed in m/s (hover to see current wind gust speed)